sensor_id;sensor_type;location;lat;lon;timestamp;pressure;altitude;pressure_sealevel;temperature;humidity
10261;BME280;5175;42.606;23.388;2024-03-02T00:00:38;93199.56;;;6.89;100.00
10261;BME280;5175;42.606;23.388;2024-03-02T00:03:06;93198.00;;;6.88;100.00
10261;BME280;5175;42.606;23.388;2024-03-02T00:05:36;93189.81;;;6.79;100.00
10261;BME280;5175;42.606;23.388;2024-03-02T00:08:04;93191.09;;;6.92;100.00
10261;BME280;5175;42.606;23.388;2024-03-02T00:10:36;93190.28;;;6.91;100.00
10261;BME280;5175;42.606;23.388;2024-03-02T00:13:05;93190.34;;;6.76;100.00
10261;BME280;5175;42.606;23.388;2024-03-02T00:15:40;93194.28;;;6.84;100.00
10261;BME280;5175;42.606;23.388;2024-03-02T00:18:10;93186.31;;;6.94;100.00
10261;BME280;5175;42.606;23.388;2024-03-02T00:20:38;93187.25;;;7.28;100.00
10261;BME280;5175;42.606;23.388;2024-03-02T00:23:07;93189.81;;;7.43;100.00
10261;BME280;5175;42.606;23.388;2024-03-02T00:25:40;93187.81;;;7.15;100.00
10261;BME280;5175;42.606;23.388;2024-03-02T00:28:16;93162.91;;;7.11;100.00
10261;BME280;5175;42.606;23.388;2024-03-02T00:30:56;93185.03;;;7.45;100.00
10261;BME280;5175;42.606;23.388;2024-03-02T00:33:25;93180.47;;;7.56;100.00
10261;BME280;5175;42.606;23.388;2024-03-02T00:35:54;93175.88;;;7.67;100.00
10261;BME280;5175;42.606;23.388;2024-03-02T00:38:21;93175.16;;;7.56;100.00
10261;BME280;5175;42.606;23.388;2024-03-02T00:40:49;93184.63;;;7.18;100.00
10261;BME280;5175;42.606;23.388;2024-03-02T00:43:43;93179.59;;;7.17;100.00
10261;BME280;5175;42.606;23.388;2024-03-02T00:46:11;93116.34;;;6.90;100.00
10261;BME280;5175;42.606;23.388;2024-03-02T00:48:47;93163.44;;;7.13;100.00
10261;BME280;5175;42.606;23.388;2024-03-02T00:51:15;93161.84;;;7.07;100.00
10261;BME280;5175;42.606;23.388;2024-03-02T00:53:42;93159.66;;;7.24;100.00
10261;BME280;5175;42.606;23.388;2024-03-02T00:56:10;93154.06;;;7.31;100.00
10261;BME280;5175;42.606;23.388;2024-03-02T00:58:38;93167.34;;;7.26;100.00
10261;BME280;5175;42.606;23.388;2024-03-02T01:01:05;93158.88;;;7.24;100.00
10261;BME280;5175;42.606;23.388;2024-03-02T01:03:32;93151.47;;;7.21;100.00
10261;BME280;5175;42.606;23.388;2024-03-02T01:05:59;93146.47;;;7.04;100.00
10261;BME280;5175;42.606;23.388;2024-03-02T01:08:27;93164.81;;;7.01;100.00
10261;BME280;5175;42.606;23.388;2024-03-02T01:10:54;93157.06;;;7.09;100.00
10261;BME280;5175;42.606;23.388;2024-03-02T01:13:21;93154.97;;;7.06;100.00
10261;BME280;5175;42.606;23.388;2024-03-02T01:15:48;93156.56;;;7.07;100.00
10261;BME280;5175;42.606;23.388;2024-03-02T01:18:15;93148.44;;;7.37;100.00
10261;BME280;5175;42.606;23.388;2024-03-02T01:20:42;93143.63;;;7.49;100.00
10261;BME280;5175;42.606;23.388;2024-03-02T01:23:09;93142.06;;;7.43;100.00
10261;BME280;5175;42.606;23.388;2024-03-02T01:25:37;93139.75;;;7.71;100.00
10261;BME280;5175;42.606;23.388;2024-03-02T01:28:05;93137.00;;;7.81;100.00
10261;BME280;5175;42.606;23.388;2024-03-02T01:30:31;93140.16;;;7.88;100.00
10261;BME280;5175;42.606;23.388;2024-03-02T01:32:58;93137.50;;;7.88;100.00
10261;BME280;5175;42.606;23.388;2024-03-02T01:35:25;93134.50;;;7.99;100.00
10261;BME280;5175;42.606;23.388;2024-03-02T01:37:53;93140.16;;;7.88;100.00
10261;BME280;5175;42.606;23.388;2024-03-02T01:40:19;93132.66;;;7.95;100.00
10261;BME280;5175;42.606;23.388;2024-03-02T01:42:47;93131.63;;;7.96;100.00
10261;BME280;5175;42.606;23.388;2024-03-02T01:45:14;93113.88;;;7.86;100.00
10261;BME280;5175;42.606;23.388;2024-03-02T01:47:41;93106.41;;;7.93;100.00
10261;BME280;5175;42.606;23.388;2024-03-02T01:50:08;93127.13;;;7.91;100.00
10261;BME280;5175;42.606;23.388;2024-03-02T01:52:37;93131.25;;;8.07;100.00
10261;BME280;5175;42.606;23.388;2024-03-02T01:55:04;93122.25;;;8.03;100.00
10261;BME280;5175;42.606;23.388;2024-03-02T01:57:32;93126.00;;;7.97;100.00
10261;BME280;5175;42.606;23.388;2024-03-02T02:00:01;93129.19;;;7.99;100.00
10261;BME280;5175;42.606;23.388;2024-03-02T02:02:28;93129.13;;;8.04;100.00
10261;BME280;5175;42.606;23.388;2024-03-02T02:04:55;93131.84;;;7.99;100.00
10261;BME280;5175;42.606;23.388;2024-03-02T02:07:22;93134.03;;;7.92;100.00
10261;BME280;5175;42.606;23.388;2024-03-02T02:09:48;93112.72;;;7.97;100.00
10261;BME280;5175;42.606;23.388;2024-03-02T02:12:15;93118.34;;;7.96;100.00
10261;BME280;5175;42.606;23.388;2024-03-02T02:14:47;93123.66;;;7.96;100.00
10261;BME280;5175;42.606;23.388;2024-03-02T02:17:16;93103.34;;;7.76;100.00
10261;BME280;5175;42.606;23.388;2024-03-02T02:19:42;93125.28;;;7.87;100.00
10261;BME280;5175;42.606;23.388;2024-03-02T02:22:11;93117.06;;;7.83;100.00
10261;BME280;5175;42.606;23.388;2024-03-02T02:24:39;93119.44;;;7.90;100.00
10261;BME280;5175;42.606;23.388;2024-03-02T02:27:06;93114.13;;;7.90;100.00
10261;BME280;5175;42.606;23.388;2024-03-02T02:29:33;93116.16;;;8.03;100.00
10261;BME280;5175;42.606;23.388;2024-03-02T02:32:00;93119.25;;;8.10;100.00
10261;BME280;5175;42.606;23.388;2024-03-02T02:34:27;93114.47;;;8.12;100.00
10261;BME280;5175;42.606;23.388;2024-03-02T02:36:53;93113.69;;;8.06;100.00
10261;BME280;5175;42.606;23.388;2024-03-02T02:39:22;93121.53;;;7.93;100.00
10261;BME280;5175;42.606;23.388;2024-03-02T02:41:49;93118.72;;;8.13;100.00
10261;BME280;5175;42.606;23.388;2024-03-02T02:44:16;93121.91;;;8.10;100.00
10261;BME280;5175;42.606;23.388;2024-03-02T02:46:42;93124.53;;;8.15;100.00
10261;BME280;5175;42.606;23.388;2024-03-02T02:49:09;93120.38;;;8.04;100.00
10261;BME280;5175;42.606;23.388;2024-03-02T02:51:36;93122.97;;;8.09;100.00
10261;BME280;5175;42.606;23.388;2024-03-02T02:54:03;93132.50;;;8.15;100.00
10261;BME280;5175;42.606;23.388;2024-03-02T02:56:31;93127.53;;;8.08;100.00
10261;BME280;5175;42.606;23.388;2024-03-02T02:58:57;93080.94;;;7.87;100.00
10261;BME280;5175;42.606;23.388;2024-03-02T03:01:25;93117.03;;;8.22;100.00
10261;BME280;5175;42.606;23.388;2024-03-02T03:03:52;93105.22;;;8.04;100.00
10261;BME280;5175;42.606;23.388;2024-03-02T03:06:20;93121.28;;;8.23;100.00
10261;BME280;5175;42.606;23.388;2024-03-02T03:08:46;93122.69;;;8.15;100.00
10261;BME280;5175;42.606;23.388;2024-03-02T03:11:13;93114.41;;;8.17;100.00
10261;BME280;5175;42.606;23.388;2024-03-02T03:13:41;93118.41;;;8.14;100.00
10261;BME280;5175;42.606;23.388;2024-03-02T03:16:08;93119.22;;;8.15;100.00
10261;BME280;5175;42.606;23.388;2024-03-02T03:18:35;93116.81;;;8.18;100.00
10261;BME280;5175;42.606;23.388;2024-03-02T03:21:02;93117.31;;;8.20;100.00
10261;BME280;5175;42.606;23.388;2024-03-02T03:23:28;93121.63;;;8.16;100.00
10261;BME280;5175;42.606;23.388;2024-03-02T03:25:55;93121.88;;;8.15;100.00
10261;BME280;5175;42.606;23.388;2024-03-02T03:28:22;93121.31;;;8.18;100.00
10261;BME280;5175;42.606;23.388;2024-03-02T03:30:50;93121.03;;;8.19;100.00
10261;BME280;5175;42.606;23.388;2024-03-02T03:33:17;93117.13;;;8.12;100.00
10261;BME280;5175;42.606;23.388;2024-03-02T03:35:43;93120.84;;;8.11;100.00
10261;BME280;5175;42.606;23.388;2024-03-02T03:38:10;93129.63;;;8.06;100.00
10261;BME280;5175;42.606;23.388;2024-03-02T03:40:37;93109.03;;;7.98;100.00
10261;BME280;5175;42.606;23.388;2024-03-02T03:43:04;93126.16;;;8.11;100.00
10261;BME280;5175;42.606;23.388;2024-03-02T03:45:30;93132.03;;;8.08;100.00
10261;BME280;5175;42.606;23.388;2024-03-02T03:47:58;93125.94;;;8.07;100.00
10261;BME280;5175;42.606;23.388;2024-03-02T03:50:25;93126.25;;;8.01;100.00
10261;BME280;5175;42.606;23.388;2024-03-02T03:52:52;93124.13;;;8.03;100.00
10261;BME280;5175;42.606;23.388;2024-03-02T03:55:18;93127.78;;;8.07;100.00
10261;BME280;5175;42.606;23.388;2024-03-02T03:57:45;93126.47;;;8.04;100.00
10261;BME280;5175;42.606;23.388;2024-03-02T04:00:13;93107.94;;;7.99;100.00
10261;BME280;5175;42.606;23.388;2024-03-02T04:02:40;93124.28;;;8.11;100.00
10261;BME280;5175;42.606;23.388;2024-03-02T04:05:08;93117.19;;;8.02;100.00
10261;BME280;5175;42.606;23.388;2024-03-02T04:07:36;93112.81;;;7.87;100.00
10261;BME280;5175;42.606;23.388;2024-03-02T04:10:07;93124.66;;;8.00;100.00
10261;BME280;5175;42.606;23.388;2024-03-02T04:12:35;93116.19;;;7.98;100.00
10261;BME280;5175;42.606;23.388;2024-03-02T04:15:04;93124.66;;;8.00;100.00
10261;BME280;5175;42.606;23.388;2024-03-02T04:17:32;93125.75;;;7.94;100.00
10261;BME280;5175;42.606;23.388;2024-03-02T04:19:59;93124.16;;;7.98;100.00
10261;BME280;5175;42.606;23.388;2024-03-02T04:22:27;93130.59;;;7.87;100.00
10261;BME280;5175;42.606;23.388;2024-03-02T04:24:54;93134.91;;;7.83;100.00
10261;BME280;5175;42.606;23.388;2024-03-02T04:27:21;93130.94;;;7.80;100.00
10261;BME280;5175;42.606;23.388;2024-03-02T04:29:47;93132.66;;;7.95;100.00
10261;BME280;5175;42.606;23.388;2024-03-02T04:32:15;93135.28;;;8.00;100.00
10261;BME280;5175;42.606;23.388;2024-03-02T04:34:41;93131.69;;;7.81;100.00
10261;BME280;5175;42.606;23.388;2024-03-02T04:37:09;93133.84;;;7.79;100.00
10261;BME280;5175;42.606;23.388;2024-03-02T04:39:37;93131.44;;;7.82;100.00
10261;BME280;5175;42.606;23.388;2024-03-02T04:42:04;93137.34;;;7.74;100.00
10261;BME280;5175;42.606;23.388;2024-03-02T04:44:31;93116.13;;;7.69;100.00
10261;BME280;5175;42.606;23.388;2024-03-02T04:46:58;93136.91;;;7.62;100.00
10261;BME280;5175;42.606;23.388;2024-03-02T04:49:24;93139.19;;;7.74;100.00
10261;BME280;5175;42.606;23.388;2024-03-02T04:51:51;93130.91;;;7.85;100.00
10261;BME280;5175;42.606;23.388;2024-03-02T04:54:18;93142.63;;;7.79;100.00
10261;BME280;5175;42.606;23.388;2024-03-02T04:56:46;93138.13;;;7.75;100.00
10261;BME280;5175;42.606;23.388;2024-03-02T04:59:15;93137.19;;;7.94;100.00
10261;BME280;5175;42.606;23.388;2024-03-02T05:01:43;93128.28;;;7.80;100.00
10261;BME280;5175;42.606;23.388;2024-03-02T05:04:10;93137.16;;;7.99;100.00
10261;BME280;5175;42.606;23.388;2024-03-02T05:06:37;93133.94;;;8.02;100.00
10261;BME280;5175;42.606;23.388;2024-03-02T05:09:05;93138.41;;;8.07;100.00
10261;BME280;5175;42.606;23.388;2024-03-02T05:11:32;93141.63;;;8.04;100.00
10261;BME280;5175;42.606;23.388;2024-03-02T05:14:22;93138.41;;;8.07;100.00
10261;BME280;5175;42.606;23.388;2024-03-02T05:16:49;93141.88;;;8.07;100.00
10261;BME280;5175;42.606;23.388;2024-03-02T05:19:16;93145.31;;;8.08;100.00
10261;BME280;5175;42.606;23.388;2024-03-02T05:21:43;93149.28;;;8.10;100.00
10261;BME280;5175;42.606;23.388;2024-03-02T05:24:09;93143.50;;;8.03;100.00
10261;BME280;5175;42.606;23.388;2024-03-02T05:26:36;93153.03;;;8.04;100.00
10261;BME280;5175;42.606;23.388;2024-03-02T05:29:03;93153.34;;;8.03;100.00
10261;BME280;5175;42.606;23.388;2024-03-02T05:31:31;93159.19;;;8.00;100.00
10261;BME280;5175;42.606;23.388;2024-03-02T05:33:58;93163.72;;;7.99;100.00
10261;BME280;5175;42.606;23.388;2024-03-02T05:36:24;93165.56;;;7.99;100.00
10261;BME280;5175;42.606;23.388;2024-03-02T05:38:51;93171.44;;;7.96;100.00
10261;BME280;5175;42.606;23.388;2024-03-02T05:41:18;93179.63;;;7.99;100.00
10261;BME280;5175;42.606;23.388;2024-03-02T05:43:44;93182.06;;;7.96;100.00
10261;BME280;5175;42.606;23.388;2024-03-02T05:46:11;93181.81;;;7.92;100.00
10261;BME280;5175;42.606;23.388;2024-03-02T05:48:39;93183.13;;;7.95;100.00
10261;BME280;5175;42.606;23.388;2024-03-02T05:51:06;93183.66;;;7.97;100.00
10261;BME280;5175;42.606;23.388;2024-03-02T05:53:33;93183.06;;;8.05;100.00
10261;BME280;5175;42.606;23.388;2024-03-02T05:56:00;93192.09;;;8.04;100.00
10261;BME280;5175;42.606;23.388;2024-03-02T05:58:26;93191.03;;;8.05;100.00
10261;BME280;5175;42.606;23.388;2024-03-02T06:01:03;93179.91;;;8.03;100.00
10261;BME280;5175;42.606;23.388;2024-03-02T06:03:31;93185.38;;;8.16;100.00
10261;BME280;5175;42.606;23.388;2024-03-02T06:05:59;93183.22;;;8.18;100.00
10261;BME280;5175;42.606;23.388;2024-03-02T06:08:26;93190.16;;;8.14;100.00
10261;BME280;5175;42.606;23.388;2024-03-02T06:10:52;93175.88;;;8.05;100.00
10261;BME280;5175;42.606;23.388;2024-03-02T06:13:19;93189.41;;;8.09;100.00
10261;BME280;5175;42.606;23.388;2024-03-02T06:15:46;93188.66;;;8.03;100.00
10261;BME280;5175;42.606;23.388;2024-03-02T06:18:12;93188.63;;;8.08;100.00
10261;BME280;5175;42.606;23.388;2024-03-02T06:20:39;93184.38;;;8.07;100.00
10261;BME280;5175;42.606;23.388;2024-03-02T06:23:07;93184.78;;;7.91;100.00
10261;BME280;5175;42.606;23.388;2024-03-02T06:25:34;93190.09;;;7.86;100.00
10261;BME280;5175;42.606;23.388;2024-03-02T06:28:01;93192.69;;;7.96;100.00
10261;BME280;5175;42.606;23.388;2024-03-02T06:30:29;93187.72;;;7.84;100.00
10261;BME280;5175;42.606;23.388;2024-03-02T06:32:56;93197.72;;;7.97;100.00
10261;BME280;5175;42.606;23.388;2024-03-02T06:35:23;93197.94;;;8.06;100.00
10261;BME280;5175;42.606;23.388;2024-03-02T06:37:49;93202.97;;;8.07;100.00
10261;BME280;5175;42.606;23.388;2024-03-02T06:40:17;93196.34;;;8.05;100.00
10261;BME280;5175;42.606;23.388;2024-03-02T06:42:44;93198.97;;;8.10;100.00
10261;BME280;5175;42.606;23.388;2024-03-02T06:45:11;93201.88;;;8.13;100.00
10261;BME280;5175;42.606;23.388;2024-03-02T06:47:38;93209.56;;;8.15;100.00
10261;BME280;5175;42.606;23.388;2024-03-02T06:50:05;93204.47;;;8.18;100.00
10261;BME280;5175;42.606;23.388;2024-03-02T06:52:32;93203.44;;;8.14;100.00
10261;BME280;5175;42.606;23.388;2024-03-02T06:54:59;93205.53;;;8.17;100.00
10261;BME280;5175;42.606;23.388;2024-03-02T06:57:27;93208.16;;;8.23;100.00
10261;BME280;5175;42.606;23.388;2024-03-02T06:59:53;93199.13;;;8.24;100.00
10261;BME280;5175;42.606;23.388;2024-03-02T07:02:23;93211.63;;;8.23;100.00
10261;BME280;5175;42.606;23.388;2024-03-02T07:04:52;93210.56;;;8.24;100.00
10261;BME280;5175;42.606;23.388;2024-03-02T07:07:19;93208.91;;;8.33;100.00
10261;BME280;5175;42.606;23.388;2024-03-02T07:09:46;93214.78;;;8.30;100.00
10261;BME280;5175;42.606;23.388;2024-03-02T07:12:13;93211.66;;;8.18;100.00
10261;BME280;5175;42.606;23.388;2024-03-02T07:14:41;93219.31;;;8.25;100.00
10261;BME280;5175;42.606;23.388;2024-03-02T07:17:33;93220.88;;;8.31;100.00
10261;BME280;5175;42.606;23.388;2024-03-02T07:20:00;93216.38;;;8.31;100.00
10261;BME280;5175;42.606;23.388;2024-03-02T07:22:26;93217.38;;;8.35;100.00
10261;BME280;5175;42.606;23.388;2024-03-02T07:24:53;93216.88;;;8.33;100.00
10261;BME280;5175;42.606;23.388;2024-03-02T07:27:20;93211.84;;;8.32;100.00
10261;BME280;5175;42.606;23.388;2024-03-02T07:29:48;93220.00;;;8.40;100.00
10261;BME280;5175;42.606;23.388;2024-03-02T07:32:14;93199.63;;;8.31;100.00
10261;BME280;5175;42.606;23.388;2024-03-02T07:34:41;93222.97;;;8.39;100.00
10261;BME280;5175;42.606;23.388;2024-03-02T07:37:08;93209.97;;;8.32;100.00
10261;BME280;5175;42.606;23.388;2024-03-02T07:39:35;93222.13;;;8.43;100.00
10261;BME280;5175;42.606;23.388;2024-03-02T07:42:02;93222.38;;;8.47;100.00
10261;BME280;5175;42.606;23.388;2024-03-02T07:44:29;93228.44;;;8.52;100.00
10261;BME280;5175;42.606;23.388;2024-03-02T07:46:57;93232.41;;;8.55;100.00
10261;BME280;5175;42.606;23.388;2024-03-02T07:49:24;93226.84;;;8.51;100.00
10261;BME280;5175;42.606;23.388;2024-03-02T07:51:50;93232.66;;;8.53;100.00
10261;BME280;5175;42.606;23.388;2024-03-02T07:54:17;93227.34;;;8.53;100.00
10261;BME280;5175;42.606;23.388;2024-03-02T07:56:45;93234.31;;;8.49;100.00
10261;BME280;5175;42.606;23.388;2024-03-02T07:59:12;93227.50;;;8.33;100.00
10261;BME280;5175;42.606;23.388;2024-03-02T08:01:39;93239.75;;;8.34;100.00
10261;BME280;5175;42.606;23.388;2024-03-02T08:04:07;93241.34;;;8.30;100.00
10261;BME280;5175;42.606;23.388;2024-03-02T08:06:34;93234.97;;;8.26;100.00
10261;BME280;5175;42.606;23.388;2024-03-02T08:09:01;93243.50;;;8.28;100.00
10261;BME280;5175;42.606;23.388;2024-03-02T08:11:35;93242.97;;;8.26;100.00
10261;BME280;5175;42.606;23.388;2024-03-02T08:14:02;93240.31;;;8.26;100.00
10261;BME280;5175;42.606;23.388;2024-03-02T08:16:29;93243.22;;;8.25;100.00
10261;BME280;5175;42.606;23.388;2024-03-02T08:18:56;93238.75;;;8.20;100.00
10261;BME280;5175;42.606;23.388;2024-03-02T08:21:25;93224.41;;;8.21;100.00
10261;BME280;5175;42.606;23.388;2024-03-02T08:23:56;93251.06;;;8.50;100.00
10261;BME280;5175;42.606;23.388;2024-03-02T08:26:22;93235.75;;;8.37;100.00
10261;BME280;5175;42.606;23.388;2024-03-02T08:28:49;93245.06;;;8.63;100.00
10261;BME280;5175;42.606;23.388;2024-03-02T08:31:16;93244.72;;;8.74;100.00
10261;BME280;5175;42.606;23.388;2024-03-02T08:33:42;93244.41;;;8.76;100.00
10261;BME280;5175;42.606;23.388;2024-03-02T08:36:09;93242.34;;;8.73;100.00
10261;BME280;5175;42.606;23.388;2024-03-02T08:38:37;93248.28;;;8.89;100.00
10261;BME280;5175;42.606;23.388;2024-03-02T08:41:04;93233.06;;;8.70;100.00
10261;BME280;5175;42.606;23.388;2024-03-02T08:43:31;93242.72;;;8.90;100.00
10261;BME280;5175;42.606;23.388;2024-03-02T08:45:58;93247.19;;;8.95;100.00
10261;BME280;5175;42.606;23.388;2024-03-02T08:48:25;93244.16;;;8.77;100.00
10261;BME280;5175;42.606;23.388;2024-03-02T08:50:51;93246.13;;;8.96;100.00
10261;BME280;5175;42.606;23.388;2024-03-02T08:53:18;93237.28;;;8.71;100.00
10261;BME280;5175;42.606;23.388;2024-03-02T08:55:46;93245.50;;;9.04;100.00
10261;BME280;5175;42.606;23.388;2024-03-02T08:58:13;93223.53;;;9.17;100.00
10261;BME280;5175;42.606;23.388;2024-03-02T09:00:40;93247.25;;;9.13;100.00
10261;BME280;5175;42.606;23.388;2024-03-02T09:03:07;93236.97;;;9.30;100.00
10261;BME280;5175;42.606;23.388;2024-03-02T09:05:34;93226.41;;;8.97;100.00
10261;BME280;5175;42.606;23.388;2024-03-02T09:08:01;93237.69;;;9.36;100.00
10261;BME280;5175;42.606;23.388;2024-03-02T09:10:29;93241.78;;;9.52;100.00
10261;BME280;5175;42.606;23.388;2024-03-02T09:12:57;93243.34;;;9.06;100.00
10261;BME280;5175;42.606;23.388;2024-03-02T09:15:25;93250.13;;;8.93;100.00
10261;BME280;5175;42.606;23.388;2024-03-02T09:17:51;93249.88;;;9.18;100.00
10261;BME280;5175;42.606;23.388;2024-03-02T09:20:18;93247.94;;;9.00;100.00
10261;BME280;5175;42.606;23.388;2024-03-02T09:22:45;93254.44;;;9.13;100.00
10261;BME280;5175;42.606;23.388;2024-03-02T09:25:12;93246.53;;;9.31;100.00
10261;BME280;5175;42.606;23.388;2024-03-02T09:27:39;93224.03;;;8.95;100.00
10261;BME280;5175;42.606;23.388;2024-03-02T09:30:09;93249.22;;;9.50;100.00
10261;BME280;5175;42.606;23.388;2024-03-02T09:32:37;93258.81;;;9.75;100.00
10261;BME280;5175;42.606;23.388;2024-03-02T09:35:04;93257.56;;;9.67;100.00
10261;BME280;5175;42.606;23.388;2024-03-02T09:37:31;93257.28;;;9.69;100.00
10261;BME280;5175;42.606;23.388;2024-03-02T09:39:57;93256.75;;;9.90;100.00
10261;BME280;5175;42.606;23.388;2024-03-02T09:42:24;93258.59;;;9.90;100.00
10261;BME280;5175;42.606;23.388;2024-03-02T09:44:51;93254.34;;;9.70;100.00
10261;BME280;5175;42.606;23.388;2024-03-02T09:47:19;93258.31;;;9.73;100.00
10261;BME280;5175;42.606;23.388;2024-03-02T09:49:47;93250.63;;;9.66;100.00
10261;BME280;5175;42.606;23.388;2024-03-02T09:52:13;93255.03;;;9.76;100.00
10261;BME280;5175;42.606;23.388;2024-03-02T09:54:41;93264.38;;;9.78;100.00
10261;BME280;5175;42.606;23.388;2024-03-02T09:57:08;93253.75;;;9.73;100.00
10261;BME280;5175;42.606;23.388;2024-03-02T09:59:35;93254.03;;;9.72;100.00
10261;BME280;5175;42.606;23.388;2024-03-02T10:02:02;93258.63;;;9.66;100.00
10261;BME280;5175;42.606;23.388;2024-03-02T10:04:30;93256.13;;;9.75;100.00
10261;BME280;5175;42.606;23.388;2024-03-02T10:07:13;93261.09;;;9.81;100.00
10261;BME280;5175;42.606;23.388;2024-03-02T10:09:40;93240.03;;;9.85;100.00
10261;BME280;5175;42.606;23.388;2024-03-02T10:12:08;93260.34;;;9.81;100.00
10261;BME280;5175;42.606;23.388;2024-03-02T10:14:36;93260.09;;;9.77;100.00
10261;BME280;5175;42.606;23.388;2024-03-02T10:17:04;93244.44;;;9.71;100.00
10261;BME280;5175;42.606;23.388;2024-03-02T10:19:33;93258.72;;;9.80;100.00
10261;BME280;5175;42.606;23.388;2024-03-02T10:22:02;93261.47;;;9.75;100.00
10261;BME280;5175;42.606;23.388;2024-03-02T10:24:36;93262.41;;;9.65;100.00
10261;BME280;5175;42.606;23.388;2024-03-02T10:27:08;93253.44;;;9.56;100.00
10261;BME280;5175;42.606;23.388;2024-03-02T10:29:39;93254.34;;;9.47;100.00
10261;BME280;5175;42.606;23.388;2024-03-02T10:32:08;93258.25;;;9.54;100.00
10261;BME280;5175;42.606;23.388;2024-03-02T10:34:40;93256.53;;;9.63;100.00
10261;BME280;5175;42.606;23.388;2024-03-02T10:37:07;93242.50;;;9.58;100.00
10261;BME280;5175;42.606;23.388;2024-03-02T10:39:34;93260.06;;;9.59;100.00
10261;BME280;5175;42.606;23.388;2024-03-02T10:42:02;93250.31;;;9.49;100.00
10261;BME280;5175;42.606;23.388;2024-03-02T10:44:30;93254.47;;;9.60;100.00
10261;BME280;5175;42.606;23.388;2024-03-02T10:46:59;93248.28;;;9.65;100.00
10261;BME280;5175;42.606;23.388;2024-03-02T10:49:27;93245.38;;;9.61;100.00
10261;BME280;5175;42.606;23.388;2024-03-02T10:51:57;93249.63;;;9.62;100.00
10261;BME280;5175;42.606;23.388;2024-03-02T10:54:23;93244.81;;;9.64;100.00
10261;BME280;5175;42.606;23.388;2024-03-02T10:56:55;93244.69;;;9.74;100.00
10261;BME280;5175;42.606;23.388;2024-03-02T10:59:27;93244.38;;;9.76;100.00
10261;BME280;5175;42.606;23.388;2024-03-02T11:01:57;93241.28;;;9.69;100.00
10261;BME280;5175;42.606;23.388;2024-03-02T11:04:26;93244.25;;;9.67;100.00
10261;BME280;5175;42.606;23.388;2024-03-02T11:06:59;93222.66;;;9.45;100.00
10261;BME280;5175;42.606;23.388;2024-03-02T11:09:28;93242.56;;;9.53;100.00
10261;BME280;5175;42.606;23.388;2024-03-02T11:12:00;93231.94;;;9.48;100.00
10261;BME280;5175;42.606;23.388;2024-03-02T11:14:30;93236.84;;;9.40;100.00
10261;BME280;5175;42.606;23.388;2024-03-02T11:16:58;93239.91;;;9.53;100.00
10261;BME280;5175;42.606;23.388;2024-03-02T11:19:25;93237.69;;;9.60;100.00
10261;BME280;5175;42.606;23.388;2024-03-02T11:21:53;93237.75;;;9.73;100.00
10261;BME280;5175;42.606;23.388;2024-03-02T11:24:31;93224.41;;;9.78;100.00
10261;BME280;5175;42.606;23.388;2024-03-02T11:27:03;93232.66;;;9.77;100.00
10261;BME280;5175;42.606;23.388;2024-03-02T11:29:43;93228.59;;;9.61;100.00
10261;BME280;5175;42.606;23.388;2024-03-02T11:32:17;93234.22;;;9.59;100.00
10261;BME280;5175;42.606;23.388;2024-03-02T11:34:46;93230.44;;;9.65;100.00
10261;BME280;5175;42.606;23.388;2024-03-02T11:37:16;93227.47;;;9.67;100.00
10261;BME280;5175;42.606;23.388;2024-03-02T11:39:45;93227.25;;;9.63;100.00
10261;BME280;5175;42.606;23.388;2024-03-02T11:42:13;93226.88;;;9.51;100.00
10261;BME280;5175;42.606;23.388;2024-03-02T11:44:42;93235.81;;;9.60;100.00
10261;BME280;5175;42.606;23.388;2024-03-02T11:47:12;93222.03;;;9.53;100.00
10261;BME280;5175;42.606;23.388;2024-03-02T11:49:42;93233.44;;;9.59;100.00
10261;BME280;5175;42.606;23.388;2024-03-02T11:52:11;93228.00;;;9.45;100.00
10261;BME280;5175;42.606;23.388;2024-03-02T11:54:39;93235.66;;;9.52;100.00
10261;BME280;5175;42.606;23.388;2024-03-02T11:57:13;93228.69;;;9.32;100.00
10261;BME280;5175;42.606;23.388;2024-03-02T11:59:40;93233.72;;;9.33;100.00
10261;BME280;5175;42.606;23.388;2024-03-02T12:02:14;93229.03;;;9.25;100.00
10261;BME280;5175;42.606;23.388;2024-03-02T12:04:41;93231.19;;;9.23;100.00
10261;BME280;5175;42.606;23.388;2024-03-02T12:07:09;93236.91;;;9.35;100.00
10261;BME280;5175;42.606;23.388;2024-03-02T12:09:35;93231.88;;;9.34;100.00
10261;BME280;5175;42.606;23.388;2024-03-02T12:12:04;93236.34;;;9.38;100.00
10261;BME280;5175;42.606;23.388;2024-03-02T12:14:33;93229.53;;;9.27;100.00
10261;BME280;5175;42.606;23.388;2024-03-02T12:17:00;93238.13;;;9.43;100.00
10261;BME280;5175;42.606;23.388;2024-03-02T12:19:28;93240.59;;;9.39;100.00
10261;BME280;5175;42.606;23.388;2024-03-02T12:21:55;93238.69;;;9.40;100.00
10261;BME280;5175;42.606;23.388;2024-03-02T12:24:23;93241.09;;;9.41;100.00
10261;BME280;5175;42.606;23.388;2024-03-02T12:26:50;93241.78;;;9.52;100.00
10261;BME280;5175;42.606;23.388;2024-03-02T12:29:19;93232.69;;;9.53;100.00
10261;BME280;5175;42.606;23.388;2024-03-02T12:31:49;93244.38;;;9.57;100.00
10261;BME280;5175;42.606;23.388;2024-03-02T12:34:17;93241.09;;;9.41;100.00
10261;BME280;5175;42.606;23.388;2024-03-02T12:36:45;93232.06;;;9.37;100.00
10261;BME280;5175;42.606;23.388;2024-03-02T12:39:15;93235.03;;;9.36;100.00
10261;BME280;5175;42.606;23.388;2024-03-02T12:41:42;93237.13;;;9.39;100.00
10261;BME280;5175;42.606;23.388;2024-03-02T12:44:08;93236.34;;;9.38;100.00
10261;BME280;5175;42.606;23.388;2024-03-02T12:46:35;93233.09;;;9.41;100.00
10261;BME280;5175;42.606;23.388;2024-03-02T12:49:08;93234.28;;;9.30;100.00
10261;BME280;5175;42.606;23.388;2024-03-02T12:51:36;93223.59;;;9.35;100.00
10261;BME280;5175;42.606;23.388;2024-03-02T12:54:06;93237.63;;;9.65;100.00
10261;BME280;5175;42.606;23.388;2024-03-02T12:56:33;93241.91;;;9.61;100.00
10261;BME280;5175;42.606;23.388;2024-03-02T12:58:59;93244.31;;;9.62;100.00
10261;BME280;5175;42.606;23.388;2024-03-02T13:01:26;93236.56;;;9.42;100.00
10261;BME280;5175;42.606;23.388;2024-03-02T13:03:53;93238.75;;;9.35;100.00